sensor_id;sensor_type;location;lat;lon;timestamp;pressure;altitude;pressure_sealevel;temperature;humidity
39243;BME280;29823;47.404;8.566;2022-09-01T00:01:28;96552.22;;;15.65;100.00
39243;BME280;29823;47.404;8.566;2022-09-01T00:03:57;96559.00;;;15.72;100.00
39243;BME280;29823;47.404;8.566;2022-09-01T00:06:30;96561.44;;;15.84;100.00
39243;BME280;29823;47.404;8.566;2022-09-01T00:09:01;96562.81;;;15.86;100.00
39243;BME280;29823;47.404;8.566;2022-09-01T00:11:32;96569.81;;;15.82;100.00
39243;BME280;29823;47.404;8.566;2022-09-01T00:14:01;96569.78;;;15.72;100.00
39243;BME280;29823;47.404;8.566;2022-09-01T00:16:29;96567.03;;;15.67;100.00
39243;BME280;29823;47.404;8.566;2022-09-01T00:18:57;96567.75;;;15.48;100.00
39243;BME280;29823;47.404;8.566;2022-09-01T00:21:32;96562.19;;;15.28;100.00
39243;BME280;29823;47.404;8.566;2022-09-01T00:24:00;96567.28;;;15.24;100.00
39243;BME280;29823;47.404;8.566;2022-09-01T00:26:28;96559.25;;;15.29;100.00
39243;BME280;29823;47.404;8.566;2022-09-01T00:28:57;96569.41;;;15.17;100.00
39243;BME280;29823;47.404;8.566;2022-09-01T00:31:26;96563.16;;;15.12;100.00
39243;BME280;29823;47.404;8.566;2022-09-01T00:33:54;96564.00;;;15.17;100.00
39243;BME280;29823;47.404;8.566;2022-09-01T00:36:22;96563.97;;;15.12;100.00
39243;BME280;29823;47.404;8.566;2022-09-01T00:38:50;96560.81;;;15.25;100.00
39243;BME280;29823;47.404;8.566;2022-09-01T00:41:20;96554.47;;;15.36;100.00
39243;BME280;29823;47.404;8.566;2022-09-01T00:43:50;96547.25;;;15.47;100.00
39243;BME280;29823;47.404;8.566;2022-09-01T00:46:21;96546.50;;;15.56;100.00
39243;BME280;29823;47.404;8.566;2022-09-01T00:48:58;96546.00;;;15.64;100.00
39243;BME280;29823;47.404;8.566;2022-09-01T00:51:28;96539.56;;;15.70;100.00
39243;BME280;29823;47.404;8.566;2022-09-01T00:53:58;96540.13;;;15.72;100.00
39243;BME280;29823;47.404;8.566;2022-09-01T00:56:28;96531.97;;;15.62;100.00
39243;BME280;29823;47.404;8.566;2022-09-01T00:58:56;96544.47;;;15.78;100.00
39243;BME280;29823;47.404;8.566;2022-09-01T01:01:27;96538.53;;;15.76;100.00
39243;BME280;29823;47.404;8.566;2022-09-01T01:03:55;96542.25;;;15.70;100.00
39243;BME280;29823;47.404;8.566;2022-09-01T01:06:27;96548.22;;;15.72;100.00
39243;BME280;29823;47.404;8.566;2022-09-01T01:08:59;96543.59;;;15.73;100.00
39243;BME280;29823;47.404;8.566;2022-09-01T01:11:28;96554.69;;;15.71;100.00
39243;BME280;29823;47.404;8.566;2022-09-01T01:14:00;96532.50;;;15.64;100.00
39243;BME280;29823;47.404;8.566;2022-09-01T01:16:40;96534.34;;;15.49;100.00
39243;BME280;29823;47.404;8.566;2022-09-01T01:19:15;96545.28;;;15.37;100.00
39243;BME280;29823;47.404;8.566;2022-09-01T01:22:09;96534.97;;;15.24;100.00
39243;BME280;29823;47.404;8.566;2022-09-01T01:24:58;96536.00;;;15.18;100.00
39243;BME280;29823;47.404;8.566;2022-09-01T01:27:31;96543.28;;;15.23;100.00
39243;BME280;29823;47.404;8.566;2022-09-01T01:30:06;96537.53;;;15.09;100.00
39243;BME280;29823;47.404;8.566;2022-09-01T01:32:36;96538.78;;;14.97;100.00
39243;BME280;29823;47.404;8.566;2022-09-01T01:35:09;96542.22;;;14.87;100.00
39243;BME280;29823;47.404;8.566;2022-09-01T01:37:40;96540.44;;;15.03;100.00
39243;BME280;29823;47.404;8.566;2022-09-01T01:40:19;96543.47;;;15.06;100.00
39243;BME280;29823;47.404;8.566;2022-09-01T01:42:49;96555.25;;;15.00;100.00
39243;BME280;29823;47.404;8.566;2022-09-01T01:45:20;96553.88;;;14.93;100.00
39243;BME280;29823;47.404;8.566;2022-09-01T01:47:50;96556.28;;;14.94;100.00
39243;BME280;29823;47.404;8.566;2022-09-01T01:50:19;96557.78;;;14.80;100.00
39243;BME280;29823;47.404;8.566;2022-09-01T01:52:48;96562.38;;;14.85;100.00
39243;BME280;29823;47.404;8.566;2022-09-01T01:55:25;96554.88;;;14.87;100.00
39243;BME280;29823;47.404;8.566;2022-09-01T01:57:55;96556.72;;;14.81;100.00
39243;BME280;29823;47.404;8.566;2022-09-01T02:00:27;96564.75;;;14.76;100.00
39243;BME280;29823;47.404;8.566;2022-09-01T02:02:57;96558.28;;;14.77;100.00
39243;BME280;29823;47.404;8.566;2022-09-01T02:05:28;96557.25;;;14.83;100.00
39243;BME280;29823;47.404;8.566;2022-09-01T02:08:00;96550.16;;;14.72;100.00
39243;BME280;29823;47.404;8.566;2022-09-01T02:10:34;96565.97;;;14.90;100.00
39243;BME280;29823;47.404;8.566;2022-09-01T02:13:03;96560.09;;;14.67;100.00
39243;BME280;29823;47.404;8.566;2022-09-01T02:15:35;96559.66;;;14.80;100.00
39243;BME280;29823;47.404;8.566;2022-09-01T02:18:10;96568.13;;;14.62;100.00
39243;BME280;29823;47.404;8.566;2022-09-01T02:20:39;96559.28;;;14.66;100.00
39243;BME280;29823;47.404;8.566;2022-09-01T02:23:07;96553.78;;;14.56;100.00
39243;BME280;29823;47.404;8.566;2022-09-01T02:25:39;96561.91;;;14.61;100.00
39243;BME280;29823;47.404;8.566;2022-09-01T02:28:32;96558.88;;;14.79;100.00
39243;BME280;29823;47.404;8.566;2022-09-01T02:31:03;96559.84;;;14.73;100.00
39243;BME280;29823;47.404;8.566;2022-09-01T02:33:31;96557.91;;;14.64;100.00
39243;BME280;29823;47.404;8.566;2022-09-01T02:36:02;96560.34;;;14.65;100.00
39243;BME280;29823;47.404;8.566;2022-09-01T02:38:32;96566.25;;;14.67;100.00
39243;BME280;29823;47.404;8.566;2022-09-01T02:41:02;96566.78;;;14.64;100.00
39243;BME280;29823;47.404;8.566;2022-09-01T02:43:30;96561.97;;;14.66;100.00
39243;BME280;29823;47.404;8.566;2022-09-01T02:46:00;96560.00;;;14.57;100.00
39243;BME280;29823;47.404;8.566;2022-09-01T02:48:30;96562.97;;;14.60;100.00
39243;BME280;29823;47.404;8.566;2022-09-01T02:51:00;96553.88;;;14.66;100.00
39243;BME280;29823;47.404;8.566;2022-09-01T02:53:28;96564.31;;;14.58;100.00
39243;BME280;29823;47.404;8.566;2022-09-01T02:55:56;96563.03;;;14.65;100.00
39243;BME280;29823;47.404;8.566;2022-09-01T02:58:27;96566.44;;;14.87;100.00
39243;BME280;29823;47.404;8.566;2022-09-01T03:00:56;96563.81;;;14.92;100.00
39243;BME280;29823;47.404;8.566;2022-09-01T03:03:25;96560.56;;;14.90;100.00
39243;BME280;29823;47.404;8.566;2022-09-01T03:05:54;96572.22;;;15.01;100.00
39243;BME280;29823;47.404;8.566;2022-09-01T03:08:22;96569.31;;;15.07;100.00
39243;BME280;29823;47.404;8.566;2022-09-01T03:10:51;96566.00;;;15.00;100.00
39243;BME280;29823;47.404;8.566;2022-09-01T03:13:22;96565.59;;;15.13;100.00
39243;BME280;29823;47.404;8.566;2022-09-01T03:15:52;96555.84;;;15.07;100.00
39243;BME280;29823;47.404;8.566;2022-09-01T03:18:19;96551.09;;;15.19;100.00
39243;BME280;29823;47.404;8.566;2022-09-01T03:20:47;96551.63;;;15.21;100.00
39243;BME280;29823;47.404;8.566;2022-09-01T03:23:18;96551.22;;;15.34;100.00
39243;BME280;29823;47.404;8.566;2022-09-01T03:25:46;96545.84;;;15.34;100.00
39243;BME280;29823;47.404;8.566;2022-09-01T03:28:15;96562.03;;;15.39;100.00
39243;BME280;29823;47.404;8.566;2022-09-01T03:30:45;96560.41;;;15.43;100.00
39243;BME280;29823;47.404;8.566;2022-09-01T03:33:15;96563.75;;;15.55;100.00
39243;BME280;29823;47.404;8.566;2022-09-01T03:35:43;96566.13;;;15.47;100.00
39243;BME280;29823;47.404;8.566;2022-09-01T03:38:12;96552.94;;;15.50;100.00
39243;BME280;29823;47.404;8.566;2022-09-01T03:40:52;96546.56;;;15.66;100.00
39243;BME280;29823;47.404;8.566;2022-09-01T03:43:20;96548.44;;;15.66;100.00
39243;BME280;29823;47.404;8.566;2022-09-01T03:45:50;96550.34;;;15.70;100.00
39243;BME280;29823;47.404;8.566;2022-09-01T03:48:22;96557.06;;;15.68;100.00
39243;BME280;29823;47.404;8.566;2022-09-01T03:50:54;96553.50;;;15.57;100.00
39243;BME280;29823;47.404;8.566;2022-09-01T03:53:30;96555.63;;;15.50;100.00
39243;BME280;29823;47.404;8.566;2022-09-01T03:56:00;96551.91;;;15.61;100.00
39243;BME280;29823;47.404;8.566;2022-09-01T03:58:29;96561.13;;;15.70;100.00
39243;BME280;29823;47.404;8.566;2022-09-01T04:00:59;96554.94;;;15.70;100.00
39243;BME280;29823;47.404;8.566;2022-09-01T04:03:32;96545.19;;;15.64;100.00
39243;BME280;29823;47.404;8.566;2022-09-01T04:06:03;96538.94;;;15.53;100.00
39243;BME280;29823;47.404;8.566;2022-09-01T04:08:30;96553.00;;;15.60;100.00
39243;BME280;29823;47.404;8.566;2022-09-01T04:11:01;96550.34;;;15.70;100.00
39243;BME280;29823;47.404;8.566;2022-09-01T04:13:35;96546.03;;;15.69;100.00
39243;BME280;29823;47.404;8.566;2022-09-01T04:16:04;96534.16;;;15.70;100.00
39243;BME280;29823;47.404;8.566;2022-09-01T04:18:37;96547.41;;;15.77;100.00
39243;BME280;29823;47.404;8.566;2022-09-01T04:21:05;96546.88;;;15.75;100.00
39243;BME280;29823;47.404;8.566;2022-09-01T04:23:34;96546.59;;;15.71;100.00
39243;BME280;29823;47.404;8.566;2022-09-01T04:26:05;96546.28;;;15.68;100.00
39243;BME280;29823;47.404;8.566;2022-09-01T04:28:39;96543.34;;;15.74;100.00
39243;BME280;29823;47.404;8.566;2022-09-01T04:31:09;96542.28;;;15.75;100.00
39243;BME280;29823;47.404;8.566;2022-09-01T04:33:42;96543.31;;;15.69;100.00
39243;BME280;29823;47.404;8.566;2022-09-01T04:36:14;96543.91;;;15.76;100.00
39243;BME280;29823;47.404;8.566;2022-09-01T04:38:44;96538.53;;;15.81;100.00
39243;BME280;29823;47.404;8.566;2022-09-01T04:41:13;96539.09;;;15.83;100.00
39243;BME280;29823;47.404;8.566;2022-09-01T04:43:43;96539.13;;;15.93;100.00
39243;BME280;29823;47.404;8.566;2022-09-01T04:46:12;96536.66;;;15.82;100.00
39243;BME280;29823;47.404;8.566;2022-09-01T04:48:42;96539.59;;;15.80;100.00
39243;BME280;29823;47.404;8.566;2022-09-01T04:51:12;96538.03;;;15.89;100.00
39243;BME280;29823;47.404;8.566;2022-09-01T04:53:41;96539.59;;;15.80;100.00
39243;BME280;29823;47.404;8.566;2022-09-01T04:56:15;96533.75;;;15.93;100.00
39243;BME280;29823;47.404;8.566;2022-09-01T04:58:45;96539.09;;;15.88;100.00
39243;BME280;29823;47.404;8.566;2022-09-01T05:01:15;96536.69;;;15.92;100.00
39243;BME280;29823;47.404;8.566;2022-09-01T05:03:45;96535.06;;;15.86;100.00
39243;BME280;29823;47.404;8.566;2022-09-01T05:06:29;96537.22;;;15.94;100.00
39243;BME280;29823;47.404;8.566;2022-09-01T05:08:59;96538.59;;;15.96;100.00
39243;BME280;29823;47.404;8.566;2022-09-01T05:11:27;96543.16;;;15.91;100.00
39243;BME280;29823;47.404;8.566;2022-09-01T05:13:54;96538.03;;;15.89;100.00
39243;BME280;29823;47.404;8.566;2022-09-01T05:16:23;96534.81;;;15.87;100.00
39243;BME280;29823;47.404;8.566;2022-09-01T05:18:54;96534.53;;;15.94;100.00
39243;BME280;29823;47.404;8.566;2022-09-01T05:21:23;96536.94;;;15.90;100.00
39243;BME280;29823;47.404;8.566;2022-09-01T05:23:54;96535.06;;;15.91;100.00
39243;BME280;29823;47.404;8.566;2022-09-01T05:26:24;96535.38;;;15.99;100.00
39243;BME280;29823;47.404;8.566;2022-09-01T05:28:54;96519.72;;;16.01;100.00
39243;BME280;29823;47.404;8.566;2022-09-01T05:31:23;96536.19;;;16.05;100.00
39243;BME280;29823;47.404;8.566;2022-09-01T05:33:55;96538.63;;;16.06;100.00
39243;BME280;29823;47.404;8.566;2022-09-01T05:36:23;96532.16;;;16.07;100.00
39243;BME280;29823;47.404;8.566;2022-09-01T05:38:52;96539.44;;;16.07;100.00
39243;BME280;29823;47.404;8.566;2022-09-01T05:41:20;96531.06;;;15.98;100.00
39243;BME280;29823;47.404;8.566;2022-09-01T05:43:49;96545.59;;;15.97;100.00
39243;BME280;29823;47.404;8.566;2022-09-01T05:46:26;96549.69;;;16.10;100.00
39243;BME280;29823;47.404;8.566;2022-09-01T05:48:57;96545.13;;;16.10;100.00
39243;BME280;29823;47.404;8.566;2022-09-01T05:51:28;96548.91;;;16.19;100.00
39243;BME280;29823;47.404;8.566;2022-09-01T05:54:12;96548.91;;;16.14;100.00
39243;BME280;29823;47.404;8.566;2022-09-01T05:56:41;96545.91;;;16.01;100.00
39243;BME280;29823;47.404;8.566;2022-09-01T05:59:10;96541.38;;;16.16;100.00
39243;BME280;29823;47.404;8.566;2022-09-01T06:01:54;96543.00;;;16.22;100.00
39243;BME280;29823;47.404;8.566;2022-09-01T06:04:24;96535.72;;;16.18;100.00
39243;BME280;29823;47.404;8.566;2022-09-01T06:06:53;96549.50;;;16.31;100.00
39243;BME280;29823;47.404;8.566;2022-09-01T06:09:36;96549.72;;;16.20;100.00
39243;BME280;29823;47.404;8.566;2022-09-01T06:12:04;96543.28;;;16.26;100.00
39243;BME280;29823;47.404;8.566;2022-09-01T06:14:33;96547.59;;;16.32;100.00
39243;BME280;29823;47.404;8.566;2022-09-01T06:17:01;96547.31;;;16.28;100.00
39243;BME280;29823;47.404;8.566;2022-09-01T06:19:30;96552.69;;;16.23;100.00
39243;BME280;29823;47.404;8.566;2022-09-01T06:22:03;96556.00;;;16.40;100.00
39243;BME280;29823;47.404;8.566;2022-09-01T06:24:30;96560.84;;;16.33;100.00
39243;BME280;29823;47.404;8.566;2022-09-01T06:26:58;96557.09;;;16.44;100.00
39243;BME280;29823;47.404;8.566;2022-09-01T06:29:26;96558.72;;;16.45;100.00
39243;BME280;29823;47.404;8.566;2022-09-01T06:31:56;96562.19;;;16.36;100.00
39243;BME280;29823;47.404;8.566;2022-09-01T06:34:25;96550.66;;;16.50;100.00
39243;BME280;29823;47.404;8.566;2022-09-01T06:36:55;96555.50;;;16.48;100.00
39243;BME280;29823;47.404;8.566;2022-09-01T06:39:22;96558.75;;;16.55;100.00
39243;BME280;29823;47.404;8.566;2022-09-01T06:41:51;96562.00;;;16.47;100.00
39243;BME280;29823;47.404;8.566;2022-09-01T06:44:20;96561.72;;;16.54;100.00
39243;BME280;29823;47.404;8.566;2022-09-01T06:46:49;96564.13;;;16.40;100.00
39243;BME280;29823;47.404;8.566;2022-09-01T06:49:17;96571.72;;;16.53;100.00
39243;BME280;29823;47.404;8.566;2022-09-01T06:51:46;96561.72;;;16.64;100.00
39243;BME280;29823;47.404;8.566;2022-09-01T06:54:19;96573.38;;;16.74;100.00
39243;BME280;29823;47.404;8.566;2022-09-01T06:56:49;96572.28;;;16.70;100.00
39243;BME280;29823;47.404;8.566;2022-09-01T06:59:19;96572.28;;;16.80;100.00
39243;BME280;29823;47.404;8.566;2022-09-01T07:01:47;96567.41;;;16.72;100.00
39243;BME280;29823;47.404;8.566;2022-09-01T07:04:17;96577.66;;;16.60;100.00
39243;BME280;29823;47.404;8.566;2022-09-01T07:06:47;96576.34;;;16.73;100.00
39243;BME280;29823;47.404;8.566;2022-09-01T07:09:38;96583.09;;;16.85;100.00
39243;BME280;29823;47.404;8.566;2022-09-01T07:12:15;96587.97;;;16.73;100.00
39243;BME280;29823;47.404;8.566;2022-09-01T07:14:53;96590.16;;;17.01;100.00
39243;BME280;29823;47.404;8.566;2022-09-01T07:17:42;96591.75;;;17.02;100.00
39243;BME280;29823;47.404;8.566;2022-09-01T07:20:10;96585.81;;;17.05;100.00
39243;BME280;29823;47.404;8.566;2022-09-01T07:22:55;96589.06;;;16.97;100.00
39243;BME280;29823;47.404;8.566;2022-09-01T07:25:45;96593.38;;;17.08;100.00
39243;BME280;29823;47.404;8.566;2022-09-01T07:28:27;96589.06;;;17.07;100.00
39243;BME280;29823;47.404;8.566;2022-09-01T07:31:06;96589.06;;;17.12;100.00
39243;BME280;29823;47.404;8.566;2022-09-01T07:33:56;96594.19;;;16.89;100.00
39243;BME280;29823;47.404;8.566;2022-09-01T07:36:45;96592.03;;;17.06;100.00
39243;BME280;29823;47.404;8.566;2022-09-01T07:39:35;96582.84;;;17.17;100.00
39243;BME280;29823;47.404;8.566;2022-09-01T07:42:22;96592.84;;;17.11;100.00
39243;BME280;29823;47.404;8.566;2022-09-01T07:45:11;96592.81;;;17.16;100.00
39243;BME280;29823;47.404;8.566;2022-09-01T07:47:55;96591.22;;;17.15;100.00
39243;BME280;29823;47.404;8.566;2022-09-01T07:50:27;96604.72;;;17.25;100.00
39243;BME280;29823;47.404;8.566;2022-09-01T07:53:16;96596.63;;;17.25;100.00
39243;BME280;29823;47.404;8.566;2022-09-01T07:55:45;96598.22;;;17.31;100.00
39243;BME280;29823;47.404;8.566;2022-09-01T07:58:17;96600.44;;;17.39;100.00
39243;BME280;29823;47.404;8.566;2022-09-01T08:00:45;96597.16;;;17.37;100.00
39243;BME280;29823;47.404;8.566;2022-09-01T08:03:16;96580.94;;;17.42;100.00
39243;BME280;29823;47.404;8.566;2022-09-01T08:05:45;96594.72;;;17.46;100.00
39243;BME280;29823;47.404;8.566;2022-09-01T08:08:16;96589.03;;;17.67;100.00
39243;BME280;29823;47.404;8.566;2022-09-01T08:10:45;96599.31;;;17.70;100.00
39243;BME280;29823;47.404;8.566;2022-09-01T08:13:16;96591.16;;;17.75;100.00
39243;BME280;29823;47.404;8.566;2022-09-01T08:15:47;96587.03;;;18.03;100.00
39243;BME280;29823;47.404;8.566;2022-09-01T08:18:35;96599.16;;;18.20;100.00
39243;BME280;29823;47.404;8.566;2022-09-01T08:21:20;96601.28;;;18.23;100.00
39243;BME280;29823;47.404;8.566;2022-09-01T08:23:49;96600.19;;;18.34;100.00
39243;BME280;29823;47.404;8.566;2022-09-01T08:26:19;96596.50;;;18.10;100.00
39243;BME280;29823;47.404;8.566;2022-09-01T08:28:48;96602.75;;;17.96;100.00
39243;BME280;29823;47.404;8.566;2022-09-01T08:31:24;96598.91;;;18.17;100.00
39243;BME280;29823;47.404;8.566;2022-09-01T08:33:56;96606.16;;;18.31;100.00
39243;BME280;29823;47.404;8.566;2022-09-01T08:36:24;96612.13;;;18.33;100.00
39243;BME280;29823;47.404;8.566;2022-09-01T08:38:52;96606.91;;;18.47;100.00
39243;BME280;29823;47.404;8.566;2022-09-01T08:41:29;96611.34;;;18.18;100.00
39243;BME280;29823;47.404;8.566;2022-09-01T08:44:07;96608.44;;;17.94;100.00
39243;BME280;29823;47.404;8.566;2022-09-01T08:46:41;96602.13;;;18.19;100.00
39243;BME280;29823;47.404;8.566;2022-09-01T08:49:13;96608.88;;;18.26;100.00
39243;BME280;29823;47.404;8.566;2022-09-01T08:51:55;96603.84;;;18.63;100.00
39243;BME280;29823;47.404;8.566;2022-09-01T08:54:27;96602.06;;;18.87;100.00
39243;BME280;29823;47.404;8.566;2022-09-01T08:57:00;96601.31;;;19.15;100.00
39243;BME280;29823;47.404;8.566;2022-09-01T08:59:29;96600.34;;;19.01;100.00
39243;BME280;29823;47.404;8.566;2022-09-01T09:02:03;96600.59;;;19.43;100.00
39243;BME280;29823;47.404;8.566;2022-09-01T09:04:48;96603.00;;;19.45;100.00
39243;BME280;29823;47.404;8.566;2022-09-01T09:07:31;96602.13;;;19.16;100.00
39243;BME280;29823;47.404;8.566;2022-09-01T09:10:06;96605.53;;;19.36;100.00
39243;BME280;29823;47.404;8.566;2022-09-01T09:12:48;96604.09;;;19.44;100.00
39243;BME280;29823;47.404;8.566;2022-09-01T09:15:25;96607.34;;;19.74;100.00
39243;BME280;29823;47.404;8.566;2022-09-01T09:18:03;96609.53;;;19.44;100.00
39243;BME280;29823;47.404;8.566;2022-09-01T09:20:54;96607.00;;;19.52;100.00
39243;BME280;29823;47.404;8.566;2022-09-01T09:23:27;96606.41;;;19.60;100.00
39243;BME280;29823;47.404;8.566;2022-09-01T09:25:56;96603.75;;;19.55;100.00
39243;BME280;29823;47.404;8.566;2022-09-01T09:28:23;96607.88;;;19.48;100.00
39243;BME280;29823;47.404;8.566;2022-09-01T09:33:55;96602.16;;;19.49;100.00
39243;BME280;29823;47.404;8.566;2022-09-01T09:36:31;96608.91;;;19.23;100.00
39243;BME280;29823;47.404;8.566;2022-09-01T09:39:04;96604.81;;;19.26;100.00
39243;BME280;29823;47.404;8.566;2022-09-01T09:41:33;96585.44;;;19.66;100.00
39243;BME280;29823;47.404;8.566;2022-09-01T09:44:14;96581.91;;;20.17;100.00
39243;BME280;29823;47.404;8.566;2022-09-01T09:46:44;96602.22;;;20.67;100.00
39243;BME280;29823;47.404;8.566;2022-09-01T09:49:19;96598.44;;;20.21;100.00
39243;BME280;29823;47.404;8.566;2022-09-01T09:52:15;96586.13;;;20.28;100.00
39243;BME280;29823;47.404;8.566;2022-09-01T09:54:58;96589.59;;;20.76;100.00
39243;BME280;29823;47.404;8.566;2022-09-01T09:57:28;96577.34;;;21.15;100.00
39243;BME280;29823;47.404;8.566;2022-09-01T10:00:02;96585.09;;;21.54;100.00
39243;BME280;29823;47.404;8.566;2022-09-01T10:02:32;96585.44;;;21.34;90.51
39243;BME280;29823;47.404;8.566;2022-09-01T10:05:26;96580.22;;;21.05;100.00
39243;BME280;29823;47.404;8.566;2022-09-01T10:07:56;96577.81;;;21.36;100.00
39243;BME280;29823;47.404;8.566;2022-09-01T10:10:29;96585.13;;;21.03;100.00
39243;BME280;29823;47.404;8.566;2022-09-01T10:12:58;96584.59;;;21.52;97.22
39243;BME280;29823;47.404;8.566;2022-09-01T10:15:29;96582.19;;;22.36;88.48
39243;BME280;29823;47.404;8.566;2022-09-01T10:18:03;96579.53;;;21.45;100.00
39243;BME280;29823;47.404;8.566;2022-09-01T10:20:56;96570.78;;;20.79;100.00
39243;BME280;29823;47.404;8.566;2022-09-01T10:23:28;96570.50;;;21.31;100.00
39243;BME280;29823;47.404;8.566;2022-09-01T10:26:01;96562.88;;;21.65;100.00
39243;BME280;29823;47.404;8.566;2022-09-01T10:28:39;96562.19;;;21.41;98.90
39243;BME280;29823;47.404;8.566;2022-09-01T10:31:17;96572.03;;;21.56;98.55
39243;BME280;29823;47.404;8.566;2022-09-01T10:33:47;96570.78;;;21.48;92.66
39243;BME280;29823;47.404;8.566;2022-09-01T10:36:17;96567.56;;;21.60;90.89
39243;BME280;29823;47.404;8.566;2022-09-01T10:38:50;96560.91;;;21.84;90.17
39243;BME280;29823;47.404;8.566;2022-09-01T10:41:48;96565.25;;;21.72;94.04
39243;BME280;29823;47.404;8.566;2022-09-01T10:44:27;96562.13;;;22.05;91.38
39243;BME280;29823;47.404;8.566;2022-09-01T10:47:00;96542.00;;;21.15;94.04
39243;BME280;29823;47.404;8.566;2022-09-01T10:49:58;96559.94;;;21.62;85.50
39243;BME280;29823;47.404;8.566;2022-09-01T10:52:53;96560.41;;;21.82;85.53
39243;BME280;29823;47.404;8.566;2022-09-01T10:55:24;96561.44;;;22.00;85.38
39243;BME280;29823;47.404;8.566;2022-09-01T10:57:58;96560.66;;;22.75;77.52
39243;BME280;29823;47.404;8.566;2022-09-01T11:00:51;96551.19;;;22.59;77.44
39243;BME280;29823;47.404;8.566;2022-09-01T11:04:00;96558.16;;;21.84;82.88
39243;BME280;29823;47.404;8.566;2022-09-01T11:09:40;96557.06;;;21.40;90.42
39243;BME280;29823;47.404;8.566;2022-09-01T11:12:30;96553.25;;;21.41;92.56
39243;BME280;29823;47.404;8.566;2022-09-01T11:15:00;96554.56;;;21.89;88.57
39243;BME280;29823;47.404;8.566;2022-09-01T11:17:30;96554.94;;;21.82;94.85
39243;BME280;29823;47.404;8.566;2022-09-01T11:20:06;96548.50;;;22.32;87.80
39243;BME280;29823;47.404;8.566;2022-09-01T11:22:37;96548.97;;;22.75;79.81
39243;BME280;29823;47.404;8.566;2022-09-01T11:28:37;96554.28;;;23.15;71.62
39243;BME280;29823;47.404;8.566;2022-09-01T11:31:25;96553.56;;;22.88;75.16
39243;BME280;29823;47.404;8.566;2022-09-01T11:34:02;96552.03;;;22.95;73.68
39243;BME280;29823;47.404;8.566;2022-09-01T11:36:33;96550.44;;;22.45;77.43
39243;BME280;29823;47.404;8.566;2022-09-01T11:39:07;96541.19;;;22.68;71.46
39243;BME280;29823;47.404;8.566;2022-09-01T11:41:49;96529.19;;;22.91;67.48
39243;BME280;29823;47.404;8.566;2022-09-01T11:44:32;96531.72;;;23.23;64.62
39243;BME280;29823;47.404;8.566;2022-09-01T11:47:04;96538.19;;;22.70;67.38
39243;BME280;29823;47.404;8.566;2022-09-01T11:49:47;96527.09;;;24.71;59.34
39243;BME280;29823;47.404;8.566;2022-09-01T11:52:17;96523.72;;;24.91;58.16
39243;BME280;29823;47.404;8.566;2022-09-01T11:54:45;96524.91;;;27.03;51.30
39243;BME280;29823;47.404;8.566;2022-09-01T11:57:28;96525.56;;;29.73;45.21
39243;BME280;29823;47.404;8.566;2022-09-01T11:59:59;96529.22;;;29.49;46.26
39243;BME280;29823;47.404;8.566;2022-09-01T12:02:29;96533.09;;;29.21;46.22
39243;BME280;29823;47.404;8.566;2022-09-01T12:05:23;96523.50;;;26.10;51.57
39243;BME280;29823;47.404;8.566;2022-09-01T12:07:53;96523.69;;;26.05;52.85
39243;BME280;29823;47.404;8.566;2022-09-01T12:10:26;96522.47;;;28.95;45.38
39243;BME280;29823;47.404;8.566;2022-09-01T12:13:00;96518.44;;;29.44;43.95
39243;BME280;29823;47.404;8.566;2022-09-01T12:15:30;96523.34;;;28.36;46.69
39243;BME280;29823;47.404;8.566;2022-09-01T12:18:13;96522.09;;;28.57;45.47
39243;BME280;29823;47.404;8.566;2022-09-01T12:20:45;96526.81;;;29.20;43.09
39243;BME280;29823;47.404;8.566;2022-09-01T12:23:23;96522.66;;;28.27;46.04
39243;BME280;29823;47.404;8.566;2022-09-01T12:25:53;96520.91;;;28.10;44.37
39243;BME280;29823;47.404;8.566;2022-09-01T12:28:23;96513.25;;;26.65;49.38
39243;BME280;29823;47.404;8.566;2022-09-01T12:30:58;96530.16;;;26.38;49.83
39243;BME280;29823;47.404;8.566;2022-09-01T12:33:27;96522.16;;;28.13;46.07
39243;BME280;29823;47.404;8.566;2022-09-01T12:36:13;96507.50;;;27.97;46.28
39243;BME280;29823;47.404;8.566;2022-09-01T12:38:42;96515.78;;;28.69;46.08
39243;BME280;29823;47.404;8.566;2022-09-01T12:41:29;96510.38;;;28.00;45.96
39243;BME280;29823;47.404;8.566;2022-09-01T12:44:25;96513.47;;;25.77;50.91
39243;BME280;29823;47.404;8.566;2022-09-01T12:46:58;96514.78;;;26.95;52.05
39243;BME280;29823;47.404;8.566;2022-09-01T12:49:34;96516.59;;;28.21;46.38
39243;BME280;29823;47.404;8.566;2022-09-01T12:52:21;96508.84;;;25.60;50.71
39243;BME280;29823;47.404;8.566;2022-09-01T12:54:53;96513.09;;;24.81;56.47
39243;BME280;29823;47.404;8.566;2022-09-01T12:57:33;96522.34;;;23.68;57.68
39243;BME280;29823;47.404;8.566;2022-09-01T13:00:14;96517.66;;;24.38;55.75
39243;BME280;29823;47.404;8.566;2022-09-01T13:02:47;96509.00;;;25.55;53.77
39243;BME280;29823;47.404;8.566;2022-09-01T13:05:21;96518.41;;;25.03;55.20
39243;BME280;29823;47.404;8.566;2022-09-01T13:07:58;96515.19;;;25.44;53.80
39243;BME280;29823;47.404;8.566;2022-09-01T13:10:30;96514.84;;;25.20;53.81
39243;BME280;29823;47.404;8.566;2022-09-01T13:12:59;96518.06;;;24.71;55.93
39243;BME280;29823;47.404;8.566;2022-09-01T13:15:27;96508.28;;;24.14;60.18
39243;BME280;29823;47.404;8.566;2022-09-01T13:17:57;96511.31;;;24.60;57.13
39243;BME280;29823;47.404;8.566;2022-09-01T13:20:25;96509.41;;;26.58;53.52
39243;BME280;29823;47.404;8.566;2022-09-01T13:22:53;96503.50;;;26.18;52.68
39243;BME280;29823;47.404;8.566;2022-09-01T13:25:22;96506.88;;;29.39;44.03
39243;BME280;29823;47.404;8.566;2022-09-01T13:27:51;96498.13;;;30.23;43.00
39243;BME280;29823;47.404;8.566;2022-09-01T13:30:22;96491.06;;;28.96;44.60
39243;BME280;29823;47.404;8.566;2022-09-01T13:32:50;96499.84;;;31.31;40.04
39243;BME280;29823;47.404;8.566;2022-09-01T13:35:39;96489.63;;;29.69;43.49